sensor_id;sensor_type;location;lat;lon;timestamp;temperature;humidity
50606;DHT22;36557;53.572;10.170;2023-06-26T06:03:58;25.50;99.40
50606;DHT22;36557;53.572;10.170;2023-06-26T06:06:24;25.30;99.70
50606;DHT22;36557;53.572;10.170;2023-06-26T06:08:50;25.20;99.90
50606;DHT22;36557;53.572;10.170;2023-06-26T06:11:16;25.30;99.50
50606;DHT22;36557;53.572;10.170;2023-06-26T06:13:41;25.20;99.90
50606;DHT22;36557;53.572;10.170;2023-06-26T06:16:07;25.30;99.20
50606;DHT22;36557;53.572;10.170;2023-06-26T06:21:06;25.30;99.90
50606;DHT22;36557;53.572;10.170;2023-06-26T06:23:32;25.70;99.30
50606;DHT22;36557;53.572;10.170;2023-06-26T06:25:57;25.70;99.00
50606;DHT22;36557;53.572;10.170;2023-06-26T06:28:23;25.80;99.70
50606;DHT22;36557;53.572;10.170;2023-06-26T06:30:49;26.00;98.60
50606;DHT22;36557;53.572;10.170;2023-06-26T06:33:14;25.80;98.70
50606;DHT22;36557;53.572;10.170;2023-06-26T06:35:40;26.00;98.60
50606;DHT22;36557;53.572;10.170;2023-06-26T06:38:06;26.00;98.80
50606;DHT22;36557;53.572;10.170;2023-06-26T06:40:32;26.00;98.90
50606;DHT22;36557;53.572;10.170;2023-06-26T06:42:57;26.10;99.30
50606;DHT22;36557;53.572;10.170;2023-06-26T06:45:23;25.90;98.60
50606;DHT22;36557;53.572;10.170;2023-06-26T06:47:49;26.20;98.80
50606;DHT22;36557;53.572;10.170;2023-06-26T06:50:14;26.40;98.80
50606;DHT22;36557;53.572;10.170;2023-06-26T06:52:42;26.00;98.90
50606;DHT22;36557;53.572;10.170;2023-06-26T06:55:08;26.30;98.90
50606;DHT22;36557;53.572;10.170;2023-06-26T06:57:38;26.20;98.40
50606;DHT22;36557;53.572;10.170;2023-06-26T07:00:09;26.00;98.70
50606;DHT22;36557;53.572;10.170;2023-06-26T07:02:39;26.50;99.10
50606;DHT22;36557;53.572;10.170;2023-06-26T07:05:05;26.40;99.00
50606;DHT22;36557;53.572;10.170;2023-06-26T07:07:32;26.70;98.80
50606;DHT22;36557;53.572;10.170;2023-06-26T07:10:13;26.70;98.40
50606;DHT22;36557;53.572;10.170;2023-06-26T07:12:39;26.70;97.90
50606;DHT22;36557;53.572;10.170;2023-06-26T07:15:06;26.80;98.00
50606;DHT22;36557;53.572;10.170;2023-06-26T07:17:32;26.80;98.10
50606;DHT22;36557;53.572;10.170;2023-06-26T07:19:59;26.80;97.90
50606;DHT22;36557;53.572;10.170;2023-06-26T07:22:25;26.80;97.90
50606;DHT22;36557;53.572;10.170;2023-06-26T07:24:51;27.00;97.60
50606;DHT22;36557;53.572;10.170;2023-06-26T07:27:16;27.20;98.00
50606;DHT22;36557;53.572;10.170;2023-06-26T07:29:44;27.30;97.70
50606;DHT22;36557;53.572;10.170;2023-06-26T07:32:10;27.30;97.80
50606;DHT22;36557;53.572;10.170;2023-06-26T07:34:36;27.40;97.20
50606;DHT22;36557;53.572;10.170;2023-06-26T07:37:01;27.60;97.60
50606;DHT22;36557;53.572;10.170;2023-06-26T07:39:27;27.40;96.70
50606;DHT22;36557;53.572;10.170;2023-06-26T07:41:53;27.40;97.50
50606;DHT22;36557;53.572;10.170;2023-06-26T07:44:19;27.60;97.30
50606;DHT22;36557;53.572;10.170;2023-06-26T07:46:44;27.70;97.10
50606;DHT22;36557;53.572;10.170;2023-06-26T07:49:11;27.90;97.20
50606;DHT22;36557;53.572;10.170;2023-06-26T07:51:37;28.20;96.30
50606;DHT22;36557;53.572;10.170;2023-06-26T07:54:03;28.30;96.00
50606;DHT22;36557;53.572;10.170;2023-06-26T07:56:28;28.30;96.70
50606;DHT22;36557;53.572;10.170;2023-06-26T07:58:54;28.30;95.60
50606;DHT22;36557;53.572;10.170;2023-06-26T08:01:20;28.50;96.40
50606;DHT22;36557;53.572;10.170;2023-06-26T08:03:46;28.60;95.60
50606;DHT22;36557;53.572;10.170;2023-06-26T08:06:11;28.40;94.80
50606;DHT22;36557;53.572;10.170;2023-06-26T08:08:37;28.70;94.90
50606;DHT22;36557;53.572;10.170;2023-06-26T08:11:03;28.70;94.50
50606;DHT22;36557;53.572;10.170;2023-06-26T08:13:28;28.80;95.10
50606;DHT22;36557;53.572;10.170;2023-06-26T08:15:54;28.80;95.30
50606;DHT22;36557;53.572;10.170;2023-06-26T08:18:20;28.80;94.90
50606;DHT22;36557;53.572;10.170;2023-06-26T08:20:46;28.70;95.50
50606;DHT22;36557;53.572;10.170;2023-06-26T08:23:11;28.60;95.00
50606;DHT22;36557;53.572;10.170;2023-06-26T08:25:37;28.70;94.50
50606;DHT22;36557;53.572;10.170;2023-06-26T08:28:03;28.90;94.60
50606;DHT22;36557;53.572;10.170;2023-06-26T08:30:29;29.10;94.20
50606;DHT22;36557;53.572;10.170;2023-06-26T08:32:56;29.50;94.70
50606;DHT22;36557;53.572;10.170;2023-06-26T08:35:21;28.90;94.10
50606;DHT22;36557;53.572;10.170;2023-06-26T08:37:47;28.90;95.10
50606;DHT22;36557;53.572;10.170;2023-06-26T08:40:16;28.80;94.50
50606;DHT22;36557;53.572;10.170;2023-06-26T08:42:42;29.20;94.40
50606;DHT22;36557;53.572;10.170;2023-06-26T08:45:08;29.40;94.10
50606;DHT22;36557;53.572;10.170;2023-06-26T08:47:35;29.40;93.20
50606;DHT22;36557;53.572;10.170;2023-06-26T08:50:10;30.10;93.00
50606;DHT22;36557;53.572;10.170;2023-06-26T08:52:41;30.40;93.30
50606;DHT22;36557;53.572;10.170;2023-06-26T08:55:10;30.10;93.10
50606;DHT22;36557;53.572;10.170;2023-06-26T08:57:37;29.90;93.10
50606;DHT22;36557;53.572;10.170;2023-06-26T09:00:03;29.60;93.10
50606;DHT22;36557;53.572;10.170;2023-06-26T09:02:29;29.20;92.50
50606;DHT22;36557;53.572;10.170;2023-06-26T09:04:56;29.20;92.60
50606;DHT22;36557;53.572;10.170;2023-06-26T09:07:21;29.00;92.20
50606;DHT22;36557;53.572;10.170;2023-06-26T09:09:47;28.80;92.60
50606;DHT22;36557;53.572;10.170;2023-06-26T09:12:13;29.40;93.70
50606;DHT22;36557;53.572;10.170;2023-06-26T09:14:39;29.40;92.20
50606;DHT22;36557;53.572;10.170;2023-06-26T09:17:06;30.00;92.90
50606;DHT22;36557;53.572;10.170;2023-06-26T09:19:32;30.20;92.20
50606;DHT22;36557;53.572;10.170;2023-06-26T09:21:58;30.00;91.10
50606;DHT22;36557;53.572;10.170;2023-06-26T09:24:25;30.40;92.00
50606;DHT22;36557;53.572;10.170;2023-06-26T09:26:51;30.40;91.80
50606;DHT22;36557;53.572;10.170;2023-06-26T09:29:17;30.70;92.20
50606;DHT22;36557;53.572;10.170;2023-06-26T09:31:44;30.40;92.20
50606;DHT22;36557;53.572;10.170;2023-06-26T09:34:09;31.00;92.10
50606;DHT22;36557;53.572;10.170;2023-06-26T09:36:36;31.30;91.50
50606;DHT22;36557;53.572;10.170;2023-06-26T09:39:03;30.80;92.40
50606;DHT22;36557;53.572;10.170;2023-06-26T09:41:30;31.00;91.90
50606;DHT22;36557;53.572;10.170;2023-06-26T09:44:01;30.90;91.50
50606;DHT22;36557;53.572;10.170;2023-06-26T09:46:31;30.40;91.80
50606;DHT22;36557;53.572;10.170;2023-06-26T09:49:07;30.20;92.40
50606;DHT22;36557;53.572;10.170;2023-06-26T09:51:34;29.40;93.10
50606;DHT22;36557;53.572;10.170;2023-06-26T09:54:01;28.90;93.70
50606;DHT22;36557;53.572;10.170;2023-06-26T09:56:28;28.70;93.60
50606;DHT22;36557;53.572;10.170;2023-06-26T09:59:01;28.90;93.60
50606;DHT22;36557;53.572;10.170;2023-06-26T10:01:27;28.50;94.30
50606;DHT22;36557;53.572;10.170;2023-06-26T10:03:53;27.80;94.90
50606;DHT22;36557;53.572;10.170;2023-06-26T10:06:28;26.90;96.10
50606;DHT22;36557;53.572;10.170;2023-06-26T10:08:56;26.20;97.90
50606;DHT22;36557;53.572;10.170;2023-06-26T10:11:25;26.00;98.80
50606;DHT22;36557;53.572;10.170;2023-06-26T10:13:55;25.20;99.30
50606;DHT22;36557;53.572;10.170;2023-06-26T10:16:26;25.20;99.90
50606;DHT22;36557;53.572;10.170;2023-06-26T10:18:58;25.10;99.90
50606;DHT22;36557;53.572;10.170;2023-06-26T10:21:27;24.90;99.90
50606;DHT22;36557;53.572;10.170;2023-06-26T10:23:56;24.70;99.90
50606;DHT22;36557;53.572;10.170;2023-06-26T10:26:24;24.40;99.90
50606;DHT22;36557;53.572;10.170;2023-06-26T10:28:51;23.90;99.90
50606;DHT22;36557;53.572;10.170;2023-06-26T10:31:20;23.40;99.90
50606;DHT22;36557;53.572;10.170;2023-06-26T10:33:47;23.10;99.90
50606;DHT22;36557;53.572;10.170;2023-06-26T10:36:18;23.00;99.90
50606;DHT22;36557;53.572;10.170;2023-06-26T10:39:05;22.80;99.90
50606;DHT22;36557;53.572;10.170;2023-06-26T10:41:37;22.50;99.90
50606;DHT22;36557;53.572;10.170;2023-06-26T10:44:11;22.30;99.90
50606;DHT22;36557;53.572;10.170;2023-06-26T10:46:54;22.00;99.90
50606;DHT22;36557;53.572;10.170;2023-06-26T10:49:23;21.40;99.90
50606;DHT22;36557;53.572;10.170;2023-06-26T10:51:50;21.20;99.90
50606;DHT22;36557;53.572;10.170;2023-06-26T10:54:20;21.30;99.90
50606;DHT22;36557;53.572;10.170;2023-06-26T10:56:47;21.10;99.90
50606;DHT22;36557;53.572;10.170;2023-06-26T10:59:35;21.30;99.90
50606;DHT22;36557;53.572;10.170;2023-06-26T11:02:01;21.30;99.90
50606;DHT22;36557;53.572;10.170;2023-06-26T11:04:47;21.10;99.90
50606;DHT22;36557;53.572;10.170;2023-06-26T11:07:22;21.10;99.90
50606;DHT22;36557;53.572;10.170;2023-06-26T11:09:58;21.40;99.90
50606;DHT22;36557;53.572;10.170;2023-06-26T11:12:43;21.80;99.90
50606;DHT22;36557;53.572;10.170;2023-06-26T11:15:16;22.10;99.90
50606;DHT22;36557;53.572;10.170;2023-06-26T11:17:43;22.50;99.90
50606;DHT22;36557;53.572;10.170;2023-06-26T11:20:12;22.20;99.90
50606;DHT22;36557;53.572;10.170;2023-06-26T11:22:39;21.90;99.90
50606;DHT22;36557;53.572;10.170;2023-06-26T11:25:06;22.00;99.90
50606;DHT22;36557;53.572;10.170;2023-06-26T11:27:53;22.30;99.90
50606;DHT22;36557;53.572;10.170;2023-06-26T11:35:24;23.00;99.90
50606;DHT22;36557;53.572;10.170;2023-06-26T11:37:59;22.50;99.90
50606;DHT22;36557;53.572;10.170;2023-06-26T11:40:27;22.20;99.90
50606;DHT22;36557;53.572;10.170;2023-06-26T11:42:58;22.10;99.90
50606;DHT22;36557;53.572;10.170;2023-06-26T11:45:24;22.10;99.90
50606;DHT22;36557;53.572;10.170;2023-06-26T11:47:49;22.70;99.90
50606;DHT22;36557;53.572;10.170;2023-06-26T11:50:17;23.10;99.90
50606;DHT22;36557;53.572;10.170;2023-06-26T11:52:44;22.90;99.90
50606;DHT22;36557;53.572;10.170;2023-06-26T11:55:10;23.10;99.90
50606;DHT22;36557;53.572;10.170;2023-06-26T11:57:37;22.80;99.90
50606;DHT22;36557;53.572;10.170;2023-06-26T12:00:15;23.40;99.90
50606;DHT22;36557;53.572;10.170;2023-06-26T12:02:43;23.60;99.90
50606;DHT22;36557;53.572;10.170;2023-06-26T12:05:09;22.90;99.90
50606;DHT22;36557;53.572;10.170;2023-06-26T12:07:35;23.20;99.90
50606;DHT22;36557;53.572;10.170;2023-06-26T12:10:03;23.60;99.90
50606;DHT22;36557;53.572;10.170;2023-06-26T12:12:31;23.70;99.90
50606;DHT22;36557;53.572;10.170;2023-06-26T12:14:57;22.70;99.90
50606;DHT22;36557;53.572;10.170;2023-06-26T12:17:24;22.30;99.90
50606;DHT22;36557;53.572;10.170;2023-06-26T12:19:52;22.50;99.90
50606;DHT22;36557;53.572;10.170;2023-06-26T12:22:19;22.60;99.90
50606;DHT22;36557;53.572;10.170;2023-06-26T12:24:46;22.60;99.90
50606;DHT22;36557;53.572;10.170;2023-06-26T12:27:13;22.70;99.90
50606;DHT22;36557;53.572;10.170;2023-06-26T12:29:40;23.40;99.90
50606;DHT22;36557;53.572;10.170;2023-06-26T12:32:10;23.80;99.90
50606;DHT22;36557;53.572;10.170;2023-06-26T12:34:37;23.50;99.90
50606;DHT22;36557;53.572;10.170;2023-06-26T12:37:10;22.80;99.90
50606;DHT22;36557;53.572;10.170;2023-06-26T12:39:54;24.30;99.90
50606;DHT22;36557;53.572;10.170;2023-06-26T12:42:24;24.70;99.90
50606;DHT22;36557;53.572;10.170;2023-06-26T12:44:50;24.10;99.90
50606;DHT22;36557;53.572;10.170;2023-06-26T12:47:17;23.60;99.90
50606;DHT22;36557;53.572;10.170;2023-06-26T12:49:50;24.00;99.90
50606;DHT22;36557;53.572;10.170;2023-06-26T12:52:16;23.50;99.90
50606;DHT22;36557;53.572;10.170;2023-06-26T12:54:44;23.70;99.90
50606;DHT22;36557;53.572;10.170;2023-06-26T12:57:10;23.60;99.90
50606;DHT22;36557;53.572;10.170;2023-06-26T12:59:37;23.50;99.90
50606;DHT22;36557;53.572;10.170;2023-06-26T13:02:03;23.60;99.90
50606;DHT22;36557;53.572;10.170;2023-06-26T13:04:29;24.70;99.90
50606;DHT22;36557;53.572;10.170;2023-06-26T13:06:55;24.70;99.80
50606;DHT22;36557;53.572;10.170;2023-06-26T13:09:23;24.60;99.20
50606;DHT22;36557;53.572;10.170;2023-06-26T13:11:49;23.70;99.80
50606;DHT22;36557;53.572;10.170;2023-06-26T13:14:15;23.20;99.20
50606;DHT22;36557;53.572;10.170;2023-06-26T13:16:41;23.00;98.90
50606;DHT22;36557;53.572;10.170;2023-06-26T13:19:07;23.40;98.30
50606;DHT22;36557;53.572;10.170;2023-06-26T13:21:36;24.10;99.10
50606;DHT22;36557;53.572;10.170;2023-06-26T13:24:02;23.80;98.10
50606;DHT22;36557;53.572;10.170;2023-06-26T13:26:29;23.70;97.80
50606;DHT22;36557;53.572;10.170;2023-06-26T13:28:55;23.60;97.00
50606;DHT22;36557;53.572;10.170;2023-06-26T13:31:21;24.40;97.60
50606;DHT22;36557;53.572;10.170;2023-06-26T13:33:48;24.70;97.30
50606;DHT22;36557;53.572;10.170;2023-06-26T13:36:17;24.30;96.40
50606;DHT22;36557;53.572;10.170;2023-06-26T13:38:43;24.50;97.30
50606;DHT22;36557;53.572;10.170;2023-06-26T13:41:11;25.10;97.60
50606;DHT22;36557;53.572;10.170;2023-06-26T13:43:37;25.20;95.70
50606;DHT22;36557;53.572;10.170;2023-06-26T13:46:02;24.40;94.70
50606;DHT22;36557;53.572;10.170;2023-06-26T13:48:29;25.00;96.80
50606;DHT22;36557;53.572;10.170;2023-06-26T13:50:55;25.60;96.40
50606;DHT22;36557;53.572;10.170;2023-06-26T13:53:21;24.90;95.20
50606;DHT22;36557;53.572;10.170;2023-06-26T13:55:47;24.50;94.60
50606;DHT22;36557;53.572;10.170;2023-06-26T13:58:13;24.70;95.70
50606;DHT22;36557;53.572;10.170;2023-06-26T14:00:40;24.60;95.60
50606;DHT22;36557;53.572;10.170;2023-06-26T14:03:07;24.00;96.70
50606;DHT22;36557;53.572;10.170;2023-06-26T14:05:33;24.00;95.10
50606;DHT22;36557;53.572;10.170;2023-06-26T14:08:01;24.00;95.40
50606;DHT22;36557;53.572;10.170;2023-06-26T14:10:27;23.60;94.90
50606;DHT22;36557;53.572;10.170;2023-06-26T14:12:52;23.00;95.50
50606;DHT22;36557;53.572;10.170;2023-06-26T14:15:18;23.30;95.20
50606;DHT22;36557;53.572;10.170;2023-06-26T14:17:44;24.20;95.40
50606;DHT22;36557;53.572;10.170;2023-06-26T14:20:10;24.40;95.00
50606;DHT22;36557;53.572;10.170;2023-06-26T14:22:38;23.90;94.50
50606;DHT22;36557;53.572;10.170;2023-06-26T14:25:05;23.50;94.20
50606;DHT22;36557;53.572;10.170;2023-06-26T14:27:31;23.60;95.10
50606;DHT22;36557;53.572;10.170;2023-06-26T14:29:57;23.70;94.30
50606;DHT22;36557;53.572;10.170;2023-06-26T14:32:23;23.70;93.70
50606;DHT22;36557;53.572;10.170;2023-06-26T14:34:48;23.30;94.00
50606;DHT22;36557;53.572;10.170;2023-06-26T14:37:14;22.80;94.30
50606;DHT22;36557;53.572;10.170;2023-06-26T14:39:40;23.40;95.70
50606;DHT22;36557;53.572;10.170;2023-06-26T14:42:06;23.90;94.00
50606;DHT22;36557;53.572;10.170;2023-06-26T14:44:32;24.00;94.50
50606;DHT22;36557;53.572;10.170;2023-06-26T14:46:58;24.70;93.80
50606;DHT22;36557;53.572;10.170;2023-06-26T14:49:24;24.40;94.30
50606;DHT22;36557;53.572;10.170;2023-06-26T14:51:49;24.20;93.20
50606;DHT22;36557;53.572;10.170;2023-06-26T14:54:15;23.00;94.20
50606;DHT22;36557;53.572;10.170;2023-06-26T14:56:40;22.80;94.50
50606;DHT22;36557;53.572;10.170;2023-06-26T14:59:08;22.90;95.20
50606;DHT22;36557;53.572;10.170;2023-06-26T15:01:34;23.10;94.10
50606;DHT22;36557;53.572;10.170;2023-06-26T15:04:00;22.90;94.10
50606;DHT22;36557;53.572;10.170;2023-06-26T15:06:26;23.00;94.90
50606;DHT22;36557;53.572;10.170;2023-06-26T15:08:51;22.80;94.30
50606;DHT22;36557;53.572;10.170;2023-06-26T15:11:18;22.70;94.50
50606;DHT22;36557;53.572;10.170;2023-06-26T15:13:44;22.40;93.80
50606;DHT22;36557;53.572;10.170;2023-06-26T15:16:09;22.30;94.80
50606;DHT22;36557;53.572;10.170;2023-06-26T15:18:35;22.90;94.60
50606;DHT22;36557;53.572;10.170;2023-06-26T15:21:01;22.50;94.40
50606;DHT22;36557;53.572;10.170;2023-06-26T15:23:28;22.80;94.70
50606;DHT22;36557;53.572;10.170;2023-06-26T15:25:54;22.60;94.70
50606;DHT22;36557;53.572;10.170;2023-06-26T15:28:20;23.00;96.30
50606;DHT22;36557;53.572;10.170;2023-06-26T15:30:46;23.00;95.20
50606;DHT22;36557;53.572;10.170;2023-06-26T15:33:13;22.30;94.70
50606;DHT22;36557;53.572;10.170;2023-06-26T15:35:39;22.00;95.40
50606;DHT22;36557;53.572;10.170;2023-06-26T15:38:05;21.90;96.00
50606;DHT22;36557;53.572;10.170;2023-06-26T15:40:30;21.80;96.50
50606;DHT22;36557;53.572;10.170;2023-06-26T15:42:56;22.00;96.50
50606;DHT22;36557;53.572;10.170;2023-06-26T15:45:22;22.40;96.60
50606;DHT22;36557;53.572;10.170;2023-06-26T15:47:50;22.20;95.50
50606;DHT22;36557;53.572;10.170;2023-06-26T15:50:16;22.20;94.70
50606;DHT22;36557;53.572;10.170;2023-06-26T15:52:42;22.00;94.10
50606;DHT22;36557;53.572;10.170;2023-06-26T15:55:08;22.10;94.40
50606;DHT22;36557;53.572;10.170;2023-06-26T15:57:35;22.20;93.60
50606;DHT22;36557;53.572;10.170;2023-06-26T16:00:02;22.10;94.40
50606;DHT22;36557;53.572;10.170;2023-06-26T16:02:28;22.10;94.10
50606;DHT22;36557;53.572;10.170;2023-06-26T16:04:54;21.40;93.50
50606;DHT22;36557;53.572;10.170;2023-06-26T16:07:20;21.60;94.40
50606;DHT22;36557;53.572;10.170;2023-06-26T16:09:45;21.50;94.60
50606;DHT22;36557;53.572;10.170;2023-06-26T16:12:11;21.70;95.60
50606;DHT22;36557;53.572;10.170;2023-06-26T16:14:37;21.30;95.20
50606;DHT22;36557;53.572;10.170;2023-06-26T16:17:03;21.40;95.80
50606;DHT22;36557;53.572;10.170;2023-06-26T16:19:29;20.90;96.20
50606;DHT22;36557;53.572;10.170;2023-06-26T16:21:55;21.10;96.60
50606;DHT22;36557;53.572;10.170;2023-06-26T16:24:21;21.30;96.80
50606;DHT22;36557;53.572;10.170;2023-06-26T16:26:47;21.30;97.70
50606;DHT22;36557;53.572;10.170;2023-06-26T16:29:14;21.30;97.60
50606;DHT22;36557;53.572;10.170;2023-06-26T16:31:39;21.60;98.20
50606;DHT22;36557;53.572;10.170;2023-06-26T16:34:05;21.30;98.30
50606;DHT22;36557;53.572;10.170;2023-06-26T16:36:31;21.50;99.00
50606;DHT22;36557;53.572;10.170;2023-06-26T16:38:56;21.60;98.00
50606;DHT22;36557;53.572;10.170;2023-06-26T16:41:22;20.90;97.90
50606;DHT22;36557;53.572;10.170;2023-06-26T16:43:49;20.80;98.40
50606;DHT22;36557;53.572;10.170;2023-06-26T16:46:15;20.90;98.70
50606;DHT22;36557;53.572;10.170;2023-06-26T16:48:41;21.10;98.30
50606;DHT22;36557;53.572;10.170;2023-06-26T16:51:07;21.00;98.40
50606;DHT22;36557;53.572;10.170;2023-06-26T16:53:33;21.10;98.90
50606;DHT22;36557;53.572;10.170;2023-06-26T16:55:58;21.30;98.50
50606;DHT22;36557;53.572;10.170;2023-06-26T16:58:24;20.90;98.40
50606;DHT22;36557;53.572;10.170;2023-06-26T17:00:50;21.00;98.90
50606;DHT22;36557;53.572;10.170;2023-06-26T17:03:17;21.00;98.80
50606;DHT22;36557;53.572;10.170;2023-06-26T17:05:43;21.10;98.60
50606;DHT22;36557;53.572;10.170;2023-06-26T17:08:10;21.10;98.50
50606;DHT22;36557;53.572;10.170;2023-06-26T17:10:36;21.40;97.80
50606;DHT22;36557;53.572;10.170;2023-06-26T17:13:02;21.00;97.90
50606;DHT22;36557;53.572;10.170;2023-06-26T17:15:27;21.00;98.70
50606;DHT22;36557;53.572;10.170;2023-06-26T17:17:53;21.00;98.80
50606;DHT22;36557;53.572;10.170;2023-06-26T17:20:19;20.80;98.80
50606;DHT22;36557;53.572;10.170;2023-06-26T17:22:45;20.90;98.70
50606;DHT22;36557;53.572;10.170;2023-06-26T17:25:13;21.00;99.10
50606;DHT22;36557;53.572;10.170;2023-06-26T17:27:39;21.10;99.40
50606;DHT22;36557;53.572;10.170;2023-06-26T17:30:06;21.20;98.30
50606;DHT22;36557;53.572;10.170;2023-06-26T17:32:32;21.30;99.00
50606;DHT22;36557;53.572;10.170;2023-06-26T17:34:57;21.40;98.60
50606;DHT22;36557;53.572;10.170;2023-06-26T17:37:24;21.10;99.00
50606;DHT22;36557;53.572;10.170;2023-06-26T17:39:52;20.50;98.90
50606;DHT22;36557;53.572;10.170;2023-06-26T17:42:22;20.60;99.20
50606;DHT22;36557;53.572;10.170;2023-06-26T17:44:49;20.40;99.50
50606;DHT22;36557;53.572;10.170;2023-06-26T17:47:15;20.50;99.90
50606;DHT22;36557;53.572;10.170;2023-06-26T17:49:40;20.20;99.90
50606;DHT22;36557;53.572;10.170;2023-06-26T17:52:07;20.20;99.90
50606;DHT22;36557;53.572;10.170;2023-06-26T17:54:33;20.30;99.90
50606;DHT22;36557;53.572;10.170;2023-06-26T17:56:58;19.90;99.90
50606;DHT22;36557;53.572;10.170;2023-06-26T17:59:24;20.10;99.90
50606;DHT22;36557;53.572;10.170;2023-06-26T18:01:50;20.40;99.90
50606;DHT22;36557;53.572;10.170;2023-06-26T18:04:16;20.40;99.90
50606;DHT22;36557;53.572;10.170;2023-06-26T18:06:41;19.80;99.90
50606;DHT22;36557;53.572;10.170;2023-06-26T18:09:07;19.80;99.90
50606;DHT22;36557;53.572;10.170;2023-06-26T18:11:34;20.00;99.90
50606;DHT22;36557;53.572;10.170;2023-06-26T18:14:03;20.20;99.90
50606;DHT22;36557;53.572;10.170;2023-06-26T18:16:29;20.10;99.90
50606;DHT22;36557;53.572;10.170;2023-06-26T18:18:56;20.20;99.90
50606;DHT22;36557;53.572;10.170;2023-06-26T18:21:25;20.00;99.90
50606;DHT22;36557;53.572;10.170;2023-06-26T18:23:51;19.90;99.90
50606;DHT22;36557;53.572;10.170;2023-06-26T18:26:17;19.90;99.90
50606;DHT22;36557;53.572;10.170;2023-06-26T18:28:44;19.70;99.80
50606;DHT22;36557;53.572;10.170;2023-06-26T18:31:10;19.80;99.90
50606;DHT22;36557;53.572;10.170;2023-06-26T18:33:36;19.70;99.90
50606;DHT22;36557;53.572;10.170;2023-06-26T18:36:01;19.70;99.90
50606;DHT22;36557;53.572;10.170;2023-06-26T18:38:28;19.50;99.90
50606;DHT22;36557;53.572;10.170;2023-06-26T18:40:55;19.60;99.90
50606;DHT22;36557;53.572;10.170;2023-06-26T18:43:21;19.70;99.90
50606;DHT22;36557;53.572;10.170;2023-06-26T18:50:40;19.30;99.90
50606;DHT22;36557;53.572;10.170;2023-06-26T18:53:06;19.20;99.90
50606;DHT22;36557;53.572;10.170;2023-06-26T18:55:31;19.40;99.90
50606;DHT22;36557;53.572;10.170;2023-06-26T18:57:59;19.20;99.90
50606;DHT22;36557;53.572;10.170;2023-06-26T19:00:25;19.10;99.90
50606;DHT22;36557;53.572;10.170;2023-06-26T19:02:51;19.00;99.90
50606;DHT22;36557;53.572;10.170;2023-06-26T19:05:17;19.10;99.90
50606;DHT22;36557;53.572;10.170;2023-06-26T19:07:46;19.10;99.90
50606;DHT22;36557;53.572;10.170;2023-06-26T19:10:12;19.00;99.90
50606;DHT22;36557;53.572;10.170;2023-06-26T19:12:45;18.70;99.90
50606;DHT22;36557;53.572;10.170;2023-06-26T19:15:15;18.70;99.90
50606;DHT22;36557;53.572;10.170;2023-06-26T19:17:42;18.70;99.90
50606;DHT22;36557;53.572;10.170;2023-06-26T19:20:08;18.70;99.90
50606;DHT22;36557;53.572;10.170;2023-06-26T19:22:33;18.50;99.90
50606;DHT22;36557;53.572;10.170;2023-06-26T19:25:00;18.50;99.90
50606;DHT22;36557;53.572;10.170;2023-06-26T19:27:27;18.70;99.90
50606;DHT22;36557;53.572;10.170;2023-06-26T19:29:53;18.60;99.90
50606;DHT22;36557;53.572;10.170;2023-06-26T19:32:19;18.50;99.90
50606;DHT22;36557;53.572;10.170;2023-06-26T19:34:45;18.40;99.90
50606;DHT22;36557;53.572;10.170;2023-06-26T19:37:11;18.40;99.90
50606;DHT22;36557;53.572;10.170;2023-06-26T19:39:37;18.50;99.90
50606;DHT22;36557;53.572;10.170;2023-06-26T19:42:03;18.30;99.90
50606;DHT22;36557;53.572;10.170;2023-06-26T19:44:29;18.30;99.90
50606;DHT22;36557;53.572;10.170;2023-06-26T19:46:55;18.20;99.90
50606;DHT22;36557;53.572;10.170;2023-06-26T19:49:21;18.20;99.90
50606;DHT22;36557;53.572;10.170;2023-06-26T19:51:47;18.30;99.90
50606;DHT22;36557;53.572;10.170;2023-06-26T19:54:13;18.20;99.90
50606;DHT22;36557;53.572;10.170;2023-06-26T19:56:40;18.20;99.90
50606;DHT22;36557;53.572;10.170;2023-06-26T19:59:05;18.40;99.90
50606;DHT22;36557;53.572;10.170;2023-06-26T20:01:31;18.10;99.90
50606;DHT22;36557;53.572;10.170;2023-06-26T20:03:57;18.10;99.90
50606;DHT22;36557;53.572;10.170;2023-06-26T20:06:25;18.00;99.90
50606;DHT22;36557;53.572;10.170;2023-06-26T20:08:51;17.90;99.90
50606;DHT22;36557;53.572;10.170;2023-06-26T20:11:17;17.80;99.90
50606;DHT22;36557;53.572;10.170;2023-06-26T20:13:43;17.80;99.90
50606;DHT22;36557;53.572;10.170;2023-06-26T20:16:09;17.80;99.90
50606;DHT22;36557;53.572;10.170;2023-06-26T20:18:34;17.90;99.90
50606;DHT22;36557;53.572;10.170;2023-06-26T20:21:00;17.70;99.90
50606;DHT22;36557;53.572;10.170;2023-06-26T20:23:26;17.80;99.90
50606;DHT22;36557;53.572;10.170;2023-06-26T20:25:52;17.80;99.90
50606;DHT22;36557;53.572;10.170;2023-06-26T20:28:17;17.60;99.90
50606;DHT22;36557;53.572;10.170;2023-06-26T20:30:43;17.70;99.90
50606;DHT22;36557;53.572;10.170;2023-06-26T20:33:09;17.70;99.90
50606;DHT22;36557;53.572;10.170;2023-06-26T20:35:35;17.80;99.90
50606;DHT22;36557;53.572;10.170;2023-06-26T20:38:00;17.60;99.90
50606;DHT22;36557;53.572;10.170;2023-06-26T20:40:26;17.50;99.90
50606;DHT22;36557;53.572;10.170;2023-06-26T20:42:53;17.60;99.90
